sensor_id;sensor_type;location;lat;lon;timestamp;pressure;altitude;pressure_sealevel;temperature;humidity
12213;BME280;6169;44.158;22.788;2023-02-05T00:01:48;101536.94;;;2.35;72.66
12213;BME280;6169;44.158;22.788;2023-02-05T00:06:50;101548.56;;;2.72;71.30
12213;BME280;6169;44.158;22.788;2023-02-05T00:11:52;101552.50;;;2.77;70.36
12213;BME280;6169;44.158;22.788;2023-02-05T00:16:55;101550.78;;;2.21;71.96
12213;BME280;6169;44.158;22.788;2023-02-05T00:21:58;101575.66;;;2.31;72.83
12213;BME280;6169;44.158;22.788;2023-02-05T00:27:00;101556.72;;;2.70;69.98
12213;BME280;6169;44.158;22.788;2023-02-05T00:32:04;101574.88;;;2.49;71.02
12213;BME280;6169;44.158;22.788;2023-02-05T00:37:06;101574.81;;;2.21;72.52
12213;BME280;6169;44.158;22.788;2023-02-05T00:42:08;101616.44;;;2.33;72.81
12213;BME280;6169;44.158;22.788;2023-02-05T00:47:12;101613.47;;;3.01;70.41
12213;BME280;6169;44.158;22.788;2023-02-05T00:52:14;101625.13;;;2.82;69.25
12213;BME280;6169;44.158;22.788;2023-02-05T00:57:17;101635.16;;;2.33;71.57
12213;BME280;6169;44.158;22.788;2023-02-05T01:02:25;101635.66;;;2.84;69.35
12213;BME280;6169;44.158;22.788;2023-02-05T01:07:27;101637.97;;;3.34;67.64
12213;BME280;6169;44.158;22.788;2023-02-05T01:12:30;101638.28;;;3.49;67.02
12213;BME280;6169;44.158;22.788;2023-02-05T01:17:34;101628.13;;;3.52;68.02
12213;BME280;6169;44.158;22.788;2023-02-05T01:22:36;101640.88;;;2.85;68.19
12213;BME280;6169;44.158;22.788;2023-02-05T01:27:38;101631.66;;;2.98;70.17
12213;BME280;6169;44.158;22.788;2023-02-05T01:32:42;101641.09;;;3.02;69.63
12213;BME280;6169;44.158;22.788;2023-02-05T01:37:44;101629.84;;;2.23;72.04
12213;BME280;6169;44.158;22.788;2023-02-05T01:42:46;101619.75;;;2.55;71.53
12213;BME280;6169;44.158;22.788;2023-02-05T01:47:51;101625.44;;;2.69;71.27
12213;BME280;6169;44.158;22.788;2023-02-05T01:52:57;101648.72;;;1.93;73.53
12213;BME280;6169;44.158;22.788;2023-02-05T01:58:00;101620.22;;;2.40;71.30
12213;BME280;6169;44.158;22.788;2023-02-05T02:03:04;101655.06;;;1.82;74.61
12213;BME280;6169;44.158;22.788;2023-02-05T02:08:08;101665.81;;;2.39;72.39
12213;BME280;6169;44.158;22.788;2023-02-05T02:13:11;101678.22;;;2.40;71.15
12213;BME280;6169;44.158;22.788;2023-02-05T02:18:16;101680.19;;;2.28;72.76
12213;BME280;6169;44.158;22.788;2023-02-05T02:23:38;101678.19;;;2.50;71.71
12213;BME280;6169;44.158;22.788;2023-02-05T02:28:49;101681.22;;;2.74;70.58
12213;BME280;6169;44.158;22.788;2023-02-05T02:33:56;101680.13;;;2.57;70.50
12213;BME280;6169;44.158;22.788;2023-02-05T02:39:05;101692.31;;;2.13;71.52
12213;BME280;6169;44.158;22.788;2023-02-05T02:44:14;101702.69;;;2.35;70.24
12213;BME280;6169;44.158;22.788;2023-02-05T02:49:23;101710.72;;;1.67;72.11
12213;BME280;6169;44.158;22.788;2023-02-05T02:54:27;101726.19;;;2.22;71.00
12213;BME280;6169;44.158;22.788;2023-02-05T02:59:34;101727.63;;;2.07;70.62
12213;BME280;6169;44.158;22.788;2023-02-05T03:04:41;101745.47;;;2.55;67.29
12213;BME280;6169;44.158;22.788;2023-02-05T03:09:49;101755.91;;;2.48;67.98
12213;BME280;6169;44.158;22.788;2023-02-05T03:14:55;101761.66;;;2.43;66.63
12213;BME280;6169;44.158;22.788;2023-02-05T03:20:01;101770.13;;;2.29;67.10
12213;BME280;6169;44.158;22.788;2023-02-05T03:25:06;101778.69;;;2.13;66.93
12213;BME280;6169;44.158;22.788;2023-02-05T03:30:11;101792.88;;;2.14;66.29
12213;BME280;6169;44.158;22.788;2023-02-05T03:35:20;101797.13;;;2.26;65.01
12213;BME280;6169;44.158;22.788;2023-02-05T03:40:31;101801.50;;;2.37;64.03
12213;BME280;6169;44.158;22.788;2023-02-05T03:45:44;101825.69;;;2.35;62.21
12213;BME280;6169;44.158;22.788;2023-02-05T03:50:51;101822.78;;;1.78;63.76
12213;BME280;6169;44.158;22.788;2023-02-05T03:56:03;101831.84;;;2.16;62.60
12213;BME280;6169;44.158;22.788;2023-02-05T04:01:09;101837.16;;;1.97;62.19
12213;BME280;6169;44.158;22.788;2023-02-05T04:06:13;101834.97;;;2.51;60.68
12213;BME280;6169;44.158;22.788;2023-02-05T04:11:15;101832.31;;;2.41;60.38
12213;BME280;6169;44.158;22.788;2023-02-05T04:16:19;101829.38;;;2.34;60.51
12213;BME280;6169;44.158;22.788;2023-02-05T04:21:21;101843.50;;;2.06;61.71
12213;BME280;6169;44.158;22.788;2023-02-05T04:26:23;101839.19;;;2.14;61.90
12213;BME280;6169;44.158;22.788;2023-02-05T04:31:27;101858.38;;;1.89;63.06
12213;BME280;6169;44.158;22.788;2023-02-05T04:36:29;101868.22;;;2.58;61.16
12213;BME280;6169;44.158;22.788;2023-02-05T04:41:31;101863.00;;;2.66;61.29
12213;BME280;6169;44.158;22.788;2023-02-05T04:46:35;101873.81;;;2.26;61.77
12213;BME280;6169;44.158;22.788;2023-02-05T04:51:37;101885.53;;;1.94;61.89
12213;BME280;6169;44.158;22.788;2023-02-05T04:56:39;101880.69;;;2.28;61.26
12213;BME280;6169;44.158;22.788;2023-02-05T05:01:43;101878.06;;;2.38;60.50
12213;BME280;6169;44.158;22.788;2023-02-05T05:06:45;101897.06;;;2.83;58.84
12213;BME280;6169;44.158;22.788;2023-02-05T05:11:47;101900.88;;;2.52;57.33
12213;BME280;6169;44.158;22.788;2023-02-05T05:16:51;101902.84;;;2.59;55.67
12213;BME280;6169;44.158;22.788;2023-02-05T05:21:53;101915.50;;;2.38;54.57
12213;BME280;6169;44.158;22.788;2023-02-05T05:26:55;101919.56;;;2.32;53.88
12213;BME280;6169;44.158;22.788;2023-02-05T05:31:59;101927.91;;;2.49;50.96
12213;BME280;6169;44.158;22.788;2023-02-05T05:37:01;101928.06;;;2.96;49.87
12213;BME280;6169;44.158;22.788;2023-02-05T05:42:04;101944.91;;;2.47;51.54
12213;BME280;6169;44.158;22.788;2023-02-05T05:47:25;101949.19;;;2.60;49.86
12213;BME280;6169;44.158;22.788;2023-02-05T05:52:27;101965.13;;;2.90;49.57
12213;BME280;6169;44.158;22.788;2023-02-05T05:57:29;101953.97;;;3.44;48.30
12213;BME280;6169;44.158;22.788;2023-02-05T06:02:38;101965.09;;;2.81;49.38
12213;BME280;6169;44.158;22.788;2023-02-05T06:07:40;101975.25;;;2.97;48.27
12213;BME280;6169;44.158;22.788;2023-02-05T06:12:43;101983.72;;;3.11;47.46
12213;BME280;6169;44.158;22.788;2023-02-05T06:17:47;101980.59;;;3.06;48.32
12213;BME280;6169;44.158;22.788;2023-02-05T06:22:49;101997.91;;;2.92;48.47
12213;BME280;6169;44.158;22.788;2023-02-05T06:27:51;101997.25;;;2.90;48.14
12213;BME280;6169;44.158;22.788;2023-02-05T06:32:55;101997.09;;;2.92;48.24
12213;BME280;6169;44.158;22.788;2023-02-05T06:37:57;102000.16;;;2.68;48.28
12213;BME280;6169;44.158;22.788;2023-02-05T06:43:00;102011.72;;;2.28;48.84
12213;BME280;6169;44.158;22.788;2023-02-05T06:48:04;102031.88;;;2.82;48.76
12213;BME280;6169;44.158;22.788;2023-02-05T06:53:06;102035.19;;;2.65;48.28
12213;BME280;6169;44.158;22.788;2023-02-05T06:58:09;102031.09;;;2.61;48.02
12213;BME280;6169;44.158;22.788;2023-02-05T07:03:12;102039.41;;;2.58;47.70
12213;BME280;6169;44.158;22.788;2023-02-05T07:08:15;102044.19;;;2.54;46.94
12213;BME280;6169;44.158;22.788;2023-02-05T07:13:17;102051.75;;;2.99;46.36
12213;BME280;6169;44.158;22.788;2023-02-05T07:18:21;102046.81;;;3.04;46.57
12213;BME280;6169;44.158;22.788;2023-02-05T07:23:24;102059.56;;;3.51;45.69
12213;BME280;6169;44.158;22.788;2023-02-05T07:28:26;102067.94;;;2.98;45.53
12213;BME280;6169;44.158;22.788;2023-02-05T07:33:30;102074.69;;;2.92;46.64
12213;BME280;6169;44.158;22.788;2023-02-05T07:38:32;102084.69;;;2.80;45.08
12213;BME280;6169;44.158;22.788;2023-02-05T07:43:34;102077.75;;;3.37;45.22
12213;BME280;6169;44.158;22.788;2023-02-05T07:48:39;102077.34;;;3.62;44.62
12213;BME280;6169;44.158;22.788;2023-02-05T07:53:41;102082.50;;;3.83;44.74
12213;BME280;6169;44.158;22.788;2023-02-05T07:58:43;102092.66;;;3.89;43.59
12213;BME280;6169;44.158;22.788;2023-02-05T08:03:47;102095.81;;;3.65;43.72
12213;BME280;6169;44.158;22.788;2023-02-05T08:08:49;102099.88;;;3.88;43.83
12213;BME280;6169;44.158;22.788;2023-02-05T08:13:51;102112.31;;;3.50;45.76
12213;BME280;6169;44.158;22.788;2023-02-05T08:18:55;102109.31;;;3.83;45.36
12213;BME280;6169;44.158;22.788;2023-02-05T08:23:57;102109.34;;;3.73;46.01
12213;BME280;6169;44.158;22.788;2023-02-05T08:29:00;102104.09;;;3.91;45.99
12213;BME280;6169;44.158;22.788;2023-02-05T08:34:04;102110.47;;;3.51;45.93
12213;BME280;6169;44.158;22.788;2023-02-05T08:39:06;102123.72;;;3.72;46.24
12213;BME280;6169;44.158;22.788;2023-02-05T08:44:09;102120.38;;;3.10;47.21
12213;BME280;6169;44.158;22.788;2023-02-05T08:49:12;102117.38;;;3.53;47.45
12213;BME280;6169;44.158;22.788;2023-02-05T08:54:16;102126.41;;;3.81;46.75
12213;BME280;6169;44.158;22.788;2023-02-05T08:59:19;102123.84;;;3.61;47.29
12213;BME280;6169;44.158;22.788;2023-02-05T09:04:23;102125.97;;;3.96;48.53
12213;BME280;6169;44.158;22.788;2023-02-05T09:09:25;102131.03;;;3.41;49.15
12213;BME280;6169;44.158;22.788;2023-02-05T09:14:27;102134.03;;;3.76;49.23
12213;BME280;6169;44.158;22.788;2023-02-05T09:19:37;102140.50;;;3.74;48.35
12213;BME280;6169;44.158;22.788;2023-02-05T09:24:40;102126.00;;;4.80;47.07
12213;BME280;6169;44.158;22.788;2023-02-05T09:29:42;102131.44;;;4.23;47.41
12213;BME280;6169;44.158;22.788;2023-02-05T09:34:46;102138.69;;;4.88;47.19
12213;BME280;6169;44.158;22.788;2023-02-05T09:39:49;102143.38;;;4.39;46.41
12213;BME280;6169;44.158;22.788;2023-02-05T09:44:59;102124.81;;;4.55;46.79
12213;BME280;6169;44.158;22.788;2023-02-05T09:50:12;102129.19;;;5.39;44.17
12213;BME280;6169;44.158;22.788;2023-02-05T09:55:20;102120.00;;;4.96;44.19
12213;BME280;6169;44.158;22.788;2023-02-05T10:00:27;102119.63;;;5.27;43.57
12213;BME280;6169;44.158;22.788;2023-02-05T10:05:37;102118.16;;;5.78;42.00
12213;BME280;6169;44.158;22.788;2023-02-05T10:10:44;102108.16;;;4.89;41.88
12213;BME280;6169;44.158;22.788;2023-02-05T10:16:01;102116.66;;;5.30;41.95
12213;BME280;6169;44.158;22.788;2023-02-05T10:21:19;102112.34;;;4.64;41.48
12213;BME280;6169;44.158;22.788;2023-02-05T10:26:31;102113.09;;;5.11;40.48
12213;BME280;6169;44.158;22.788;2023-02-05T10:31:40;102129.59;;;4.61;41.07
12213;BME280;6169;44.158;22.788;2023-02-05T10:36:45;102121.97;;;5.57;40.42
12213;BME280;6169;44.158;22.788;2023-02-05T10:41:52;102124.94;;;5.19;40.58
12213;BME280;6169;44.158;22.788;2023-02-05T10:47:04;102117.41;;;4.77;42.38
12213;BME280;6169;44.158;22.788;2023-02-05T10:52:11;102121.06;;;5.03;41.22
12213;BME280;6169;44.158;22.788;2023-02-05T10:57:16;102125.88;;;4.72;42.27
12213;BME280;6169;44.158;22.788;2023-02-05T11:02:19;102126.94;;;4.89;41.58
12213;BME280;6169;44.158;22.788;2023-02-05T11:07:26;102119.25;;;4.76;41.96
12213;BME280;6169;44.158;22.788;2023-02-05T11:12:30;102110.13;;;4.59;42.47
12213;BME280;6169;44.158;22.788;2023-02-05T11:17:35;102115.38;;;4.79;42.32
12213;BME280;6169;44.158;22.788;2023-02-05T11:22:40;102106.69;;;4.94;42.09
12213;BME280;6169;44.158;22.788;2023-02-05T11:27:50;102111.81;;;4.60;42.58
12213;BME280;6169;44.158;22.788;2023-02-05T11:32:53;102098.91;;;4.36;42.24
12213;BME280;6169;44.158;22.788;2023-02-05T11:38:06;102102.41;;;4.46;43.86
12213;BME280;6169;44.158;22.788;2023-02-05T11:43:16;102088.72;;;5.23;42.24
12213;BME280;6169;44.158;22.788;2023-02-05T11:48:30;102079.41;;;4.44;42.00
12213;BME280;6169;44.158;22.788;2023-02-05T11:53:36;102077.81;;;5.24;41.80
12213;BME280;6169;44.158;22.788;2023-02-05T11:58:39;102077.22;;;4.85;42.41
12213;BME280;6169;44.158;22.788;2023-02-05T12:03:56;102082.41;;;4.96;41.40
12213;BME280;6169;44.158;22.788;2023-02-05T12:09:01;102071.47;;;4.80;41.87
12213;BME280;6169;44.158;22.788;2023-02-05T12:14:08;102080.88;;;4.29;42.74
12213;BME280;6169;44.158;22.788;2023-02-05T12:19:18;102068.41;;;4.92;42.74
12213;BME280;6169;44.158;22.788;2023-02-05T12:24:40;102062.19;;;4.92;42.43
12213;BME280;6169;44.158;22.788;2023-02-05T12:30:03;102056.91;;;5.18;42.51
12213;BME280;6169;44.158;22.788;2023-02-05T12:35:22;102054.88;;;5.30;41.79
12213;BME280;6169;44.158;22.788;2023-02-05T12:40:41;102052.28;;;4.75;42.05
12213;BME280;6169;44.158;22.788;2023-02-05T12:45:53;102051.34;;;5.47;41.69
12213;BME280;6169;44.158;22.788;2023-02-05T12:51:15;102049.69;;;5.01;42.16
12213;BME280;6169;44.158;22.788;2023-02-05T12:56:33;102039.78;;;4.56;42.89
12213;BME280;6169;44.158;22.788;2023-02-05T13:01:44;102049.16;;;4.42;44.49
12213;BME280;6169;44.158;22.788;2023-02-05T13:06:53;102048.97;;;4.25;43.38
12213;BME280;6169;44.158;22.788;2023-02-05T13:12:03;102051.03;;;3.94;44.54
12213;BME280;6169;44.158;22.788;2023-02-05T13:17:12;102052.88;;;4.41;43.24
12213;BME280;6169;44.158;22.788;2023-02-05T13:22:19;102054.72;;;3.93;43.75
12213;BME280;6169;44.158;22.788;2023-02-05T13:27:45;102056.84;;;4.37;42.86
12213;BME280;6169;44.158;22.788;2023-02-05T13:33:07;102059.09;;;4.69;42.56
12213;BME280;6169;44.158;22.788;2023-02-05T13:38:25;102054.84;;;4.94;42.48
12213;BME280;6169;44.158;22.788;2023-02-05T13:49:51;102059.47;;;5.20;41.32
12213;BME280;6169;44.158;22.788;2023-02-05T13:55:35;102049.13;;;5.25;41.82
12213;BME280;6169;44.158;22.788;2023-02-05T14:00:42;102046.50;;;5.33;40.44
12213;BME280;6169;44.158;22.788;2023-02-05T14:05:47;102046.09;;;5.64;40.13
12213;BME280;6169;44.158;22.788;2023-02-05T14:10:57;102063.06;;;5.28;40.54
12213;BME280;6169;44.158;22.788;2023-02-05T14:21:54;102058.09;;;5.33;40.26
12213;BME280;6169;44.158;22.788;2023-02-05T14:26:57;102055.91;;;5.01;41.22
12213;BME280;6169;44.158;22.788;2023-02-05T14:32:00;102066.00;;;4.71;41.16
12213;BME280;6169;44.158;22.788;2023-02-05T14:37:04;102059.28;;;5.03;40.89
12213;BME280;6169;44.158;22.788;2023-02-05T14:42:06;102062.09;;;4.84;40.56
12213;BME280;6169;44.158;22.788;2023-02-05T14:47:22;102055.59;;;4.59;40.69
12213;BME280;6169;44.158;22.788;2023-02-05T14:52:31;102057.53;;;4.39;41.71
12213;BME280;6169;44.158;22.788;2023-02-05T14:57:40;102054.72;;;4.31;41.17
12213;BME280;6169;44.158;22.788;2023-02-05T15:03:22;102052.03;;;4.40;39.97
12213;BME280;6169;44.158;22.788;2023-02-05T15:08:41;102053.28;;;4.09;40.99
12213;BME280;6169;44.158;22.788;2023-02-05T15:19:20;102064.00;;;3.99;41.32
12213;BME280;6169;44.158;22.788;2023-02-05T15:24:26;102056.03;;;3.50;42.51
12213;BME280;6169;44.158;22.788;2023-02-05T15:29:34;102056.13;;;3.88;41.38
12213;BME280;6169;44.158;22.788;2023-02-05T15:34:40;102059.22;;;3.93;41.70
12213;BME280;6169;44.158;22.788;2023-02-05T15:39:50;102066.63;;;3.62;40.46
12213;BME280;6169;44.158;22.788;2023-02-05T15:44:55;102066.28;;;3.94;40.80
12213;BME280;6169;44.158;22.788;2023-02-05T15:49:58;102075.69;;;4.17;39.91
12213;BME280;6169;44.158;22.788;2023-02-05T15:55:10;102095.00;;;4.21;40.58
12213;BME280;6169;44.158;22.788;2023-02-05T16:00:19;102101.13;;;4.03;42.80
12213;BME280;6169;44.158;22.788;2023-02-05T16:05:26;102088.94;;;4.19;42.86
12213;BME280;6169;44.158;22.788;2023-02-05T16:10:32;102107.63;;;4.48;42.20
12213;BME280;6169;44.158;22.788;2023-02-05T16:15:38;102119.22;;;3.92;44.01
12213;BME280;6169;44.158;22.788;2023-02-05T16:20:43;102119.63;;;3.87;43.39
12213;BME280;6169;44.158;22.788;2023-02-05T16:25:51;102123.00;;;3.79;43.66
12213;BME280;6169;44.158;22.788;2023-02-05T16:30:55;102141.63;;;3.52;42.93
12213;BME280;6169;44.158;22.788;2023-02-05T16:36:01;102135.84;;;3.95;42.95
12213;BME280;6169;44.158;22.788;2023-02-05T16:41:17;102145.28;;;3.80;44.92
12213;BME280;6169;44.158;22.788;2023-02-05T16:46:25;102156.72;;;3.53;46.37
12213;BME280;6169;44.158;22.788;2023-02-05T16:56:55;102168.66;;;3.29;45.10
12213;BME280;6169;44.158;22.788;2023-02-05T17:02:00;102178.69;;;3.37;44.62
12213;BME280;6169;44.158;22.788;2023-02-05T17:07:13;102184.03;;;3.27;45.60
12213;BME280;6169;44.158;22.788;2023-02-05T17:17:44;102194.50;;;3.09;41.20
12213;BME280;6169;44.158;22.788;2023-02-05T17:23:07;102193.38;;;3.72;41.63
12213;BME280;6169;44.158;22.788;2023-02-05T17:28:14;102200.13;;;3.37;43.40
12213;BME280;6169;44.158;22.788;2023-02-05T17:33:19;102204.94;;;3.12;44.42
12213;BME280;6169;44.158;22.788;2023-02-05T17:38:22;102207.88;;;3.30;43.90
12213;BME280;6169;44.158;22.788;2023-02-05T17:43:26;102221.16;;;3.42;46.00
12213;BME280;6169;44.158;22.788;2023-02-05T17:48:28;102225.19;;;3.26;46.85
12213;BME280;6169;44.158;22.788;2023-02-05T17:53:30;102229.28;;;3.30;46.96
12213;BME280;6169;44.158;22.788;2023-02-05T17:58:34;102233.72;;;3.20;46.69
12213;BME280;6169;44.158;22.788;2023-02-05T18:03:36;102240.16;;;3.08;47.71
12213;BME280;6169;44.158;22.788;2023-02-05T18:08:39;102243.19;;;3.65;46.95
12213;BME280;6169;44.158;22.788;2023-02-05T18:13:43;102256.69;;;2.82;48.38
12213;BME280;6169;44.158;22.788;2023-02-05T18:18:45;102287.31;;;2.36;50.25
12213;BME280;6169;44.158;22.788;2023-02-05T18:23:48;102286.47;;;2.15;49.18
12213;BME280;6169;44.158;22.788;2023-02-05T18:28:53;102289.63;;;2.41;48.49
12213;BME280;6169;44.158;22.788;2023-02-05T18:33:56;102290.94;;;2.88;46.66
12213;BME280;6169;44.158;22.788;2023-02-05T18:38:58;102284.53;;;2.38;49.06
12213;BME280;6169;44.158;22.788;2023-02-05T18:44:02;102285.47;;;2.48;49.43
12213;BME280;6169;44.158;22.788;2023-02-05T18:49:04;102295.66;;;3.27;47.65
12213;BME280;6169;44.158;22.788;2023-02-05T18:54:07;102299.78;;;3.41;48.70
12213;BME280;6169;44.158;22.788;2023-02-05T18:59:13;102300.63;;;3.10;47.95
12213;BME280;6169;44.158;22.788;2023-02-05T19:04:16;102294.44;;;3.41;47.18
12213;BME280;6169;44.158;22.788;2023-02-05T19:09:21;102286.41;;;3.41;46.51
12213;BME280;6169;44.158;22.788;2023-02-05T19:14:27;102297.75;;;3.23;45.43
12213;BME280;6169;44.158;22.788;2023-02-05T19:19:30;102300.19;;;3.05;45.89
12213;BME280;6169;44.158;22.788;2023-02-05T19:24:33;102301.47;;;3.11;45.86
12213;BME280;6169;44.158;22.788;2023-02-05T19:29:37;102303.59;;;3.07;46.37
12213;BME280;6169;44.158;22.788;2023-02-05T19:34:40;102312.47;;;2.87;46.65
12213;BME280;6169;44.158;22.788;2023-02-05T19:39:44;102321.78;;;2.51;46.36
12213;BME280;6169;44.158;22.788;2023-02-05T19:44:48;102329.44;;;2.23;47.67
12213;BME280;6169;44.158;22.788;2023-02-05T19:49:50;102337.84;;;2.18;46.75
12213;BME280;6169;44.158;22.788;2023-02-05T19:54:53;102336.81;;;1.98;47.93
12213;BME280;6169;44.158;22.788;2023-02-05T19:59:57;102335.84;;;1.88;47.63
12213;BME280;6169;44.158;22.788;2023-02-05T20:04:59;102339.19;;;2.13;48.38
12213;BME280;6169;44.158;22.788;2023-02-05T20:10:02;102352.47;;;2.03;48.14
12213;BME280;6169;44.158;22.788;2023-02-05T20:15:07;102349.34;;;1.87;46.41
12213;BME280;6169;44.158;22.788;2023-02-05T20:20:11;102348.88;;;1.14;47.54
12213;BME280;6169;44.158;22.788;2023-02-05T20:25:13;102199.34;;;0.35;46.59
12213;BME280;6169;44.158;22.788;2023-02-05T20:30:17;102354.78;;;1.06;47.83
12213;BME280;6169;44.158;22.788;2023-02-05T20:35:37;102358.91;;;0.99;47.36
12213;BME280;6169;44.158;22.788;2023-02-05T20:40:39;102370.91;;;0.94;48.03
12213;BME280;6169;44.158;22.788;2023-02-05T20:45:43;102374.53;;;0.57;48.02
12213;BME280;6169;44.158;22.788;2023-02-05T20:50:45;102379.50;;;0.62;48.33
12213;BME280;6169;44.158;22.788;2023-02-05T20:55:48;102390.94;;;0.40;48.26
12213;BME280;6169;44.158;22.788;2023-02-05T21:00:52;102397.50;;;0.47;48.38
12213;BME280;6169;44.158;22.788;2023-02-05T21:05:56;102403.34;;;0.28;47.82
12213;BME280;6169;44.158;22.788;2023-02-05T21:10:58;102408.28;;;0.21;48.51
12213;BME280;6169;44.158;22.788;2023-02-05T21:16:03;102404.63;;;0.22;46.73
12213;BME280;6169;44.158;22.788;2023-02-05T21:21:06;102406.53;;;-0.04;47.66
12213;BME280;6169;44.158;22.788;2023-02-05T21:26:16;102406.69;;;0.19;47.55
12213;BME280;6169;44.158;22.788;2023-02-05T21:31:21;102413.38;;;0.01;48.02
12213;BME280;6169;44.158;22.788;2023-02-05T21:36:24;102431.22;;;0.11;46.87
12213;BME280;6169;44.158;22.788;2023-02-05T21:41:26;102429.06;;;0.16;46.84
12213;BME280;6169;44.158;22.788;2023-02-05T21:46:30;102432.88;;;0.01;46.32
12213;BME280;6169;44.158;22.788;2023-02-05T21:51:33;102442.47;;;-0.09;46.89
12213;BME280;6169;44.158;22.788;2023-02-05T21:56:37;102438.84;;;-0.08;46.73
12213;BME280;6169;44.158;22.788;2023-02-05T22:01:41;102441.19;;;0.33;45.15
12213;BME280;6169;44.158;22.788;2023-02-05T22:06:44;102455.56;;;-0.06;45.74
12213;BME280;6169;44.158;22.788;2023-02-05T22:11:48;102449.16;;;-0.04;45.94
12213;BME280;6169;44.158;22.788;2023-02-05T22:16:52;102447.47;;;-0.17;45.93
12213;BME280;6169;44.158;22.788;2023-02-05T22:21:54;102442.31;;;0.05;45.28
12213;BME280;6169;44.158;22.788;2023-02-05T22:26:56;102446.00;;;0.28;44.95
12213;BME280;6169;44.158;22.788;2023-02-05T22:32:00;102448.19;;;0.47;44.64
12213;BME280;6169;44.158;22.788;2023-02-05T22:37:02;102450.28;;;0.55;42.91
12213;BME280;6169;44.158;22.788;2023-02-05T22:42:04;102450.28;;;0.55;43.04
12213;BME280;6169;44.158;22.788;2023-02-05T22:47:08;102460.81;;;0.32;43.79
12213;BME280;6169;44.158;22.788;2023-02-05T22:52:10;102452.88;;;0.43;44.41
12213;BME280;6169;44.158;22.788;2023-02-05T22:57:12;102445.66;;;0.33;45.00
12213;BME280;6169;44.158;22.788;2023-02-05T23:02:16;102441.03;;;0.72;43.79
12213;BME280;6169;44.158;22.788;2023-02-05T23:07:18;102445.69;;;0.81;43.08
12213;BME280;6169;44.158;22.788;2023-02-05T23:12:20;102440.81;;;0.75;44.00
12213;BME280;6169;44.158;22.788;2023-02-05T23:17:24;102442.81;;;0.95;43.44
12213;BME280;6169;44.158;22.788;2023-02-05T23:22:26;102447.38;;;0.82;42.61
12213;BME280;6169;44.158;22.788;2023-02-05T23:27:30;102451.34;;;1.00;42.89
12213;BME280;6169;44.158;22.788;2023-02-05T23:32:34;102455.72;;;1.12;43.08
12213;BME280;6169;44.158;22.788;2023-02-05T23:37:36;102464.16;;;0.95;43.34
12213;BME280;6169;44.158;22.788;2023-02-05T23:42:39;102461.53;;;1.06;43.50
12213;BME280;6169;44.158;22.788;2023-02-05T23:47:42;102470.22;;;1.32;42.65
12213;BME280;6169;44.158;22.788;2023-02-05T23:52:44;102467.78;;;1.29;41.91
12213;BME280;6169;44.158;22.788;2023-02-05T23:57:47;102478.84;;;1.25;43.29
